Time;durP1;ratioP1;P1;durP2;ratioP2;P2;SDS_P1;SDS_P2;PMS_P1;PMS_P2;Temp;Humidity;BMP_temperature;BMP_pressure;BME280_temperature;BME280_humidity;BME280_pressure;Samples;Min_cycle;Max_cycle;Signal;HPM_P1;HPM_P2
2023/04/17 00:01:30;;;;;;;17.00;11.52;;;;;;;;;;5133544;27;20030;-74
2023/04/17 00:03:56;;;;;;;19.42;11.10;;;;;;;;;;5120354;27;20402;-75
2023/04/17 00:06:22;;;;;;;18.73;12.23;;;;;;;;;;5133482;27;20119;-74
2023/04/17 00:08:48;;;;;;;18.75;11.80;;;;;;;;;;5133172;27;20023;-75
2023/04/17 00:11:14;;;;;;;21.80;12.05;;;;;;;;;;5133484;27;20027;-68
2023/04/17 00:13:40;;;;;;;18.15;10.95;;;;;;;;;;5133423;27;20072;-75
2023/04/17 00:16:09;;;;;;;17.95;11.50;;;;;;;;;;5133469;27;20118;-75
2023/04/17 00:18:34;;;;;;;19.45;11.57;;;;;;;;;;5133452;27;20023;-69
2023/04/17 00:21:00;;;;;;;21.95;12.02;;;;;;;;;;5139059;27;20525;-74
2023/04/17 00:23:25;;;;;;;22.85;11.93;;;;;;;;;;5153879;27;20031;-73
2023/04/17 00:25:51;;;;;;;21.95;13.13;;;;;;;;;;5153924;27;20026;-73
2023/04/17 00:28:17;;;;;;;22.45;11.90;;;;;;;;;;5153816;27;20034;-74
2023/04/17 00:30:44;;;;;;;20.23;12.25;;;;;;;;;;5153909;27;20019;-72
2023/04/17 00:33:09;;;;;;;20.27;11.48;;;;;;;;;;5137056;27;20035;-75
2023/04/17 00:35:34;;;;;;;18.88;11.55;;;;;;;;;;5133067;27;20421;-70
2023/04/17 00:38:00;;;;;;;19.52;11.85;;;;;;;;;;5132781;27;20039;-75
2023/04/17 00:40:25;;;;;;;18.52;12.00;;;;;;;;;;5133100;27;20023;-74
2023/04/17 00:42:54;;;;;;;17.40;11.73;;;;;;;;;;5133238;27;20039;-63
2023/04/17 00:45:20;;;;;;;20.17;12.07;;;;;;;;;;5133210;27;20369;-75
2023/04/17 00:47:48;;;;;;;17.25;12.13;;;;;;;;;;5132849;27;20090;-74
2023/04/17 00:50:14;;;;;;;21.77;12.27;;;;;;;;;;5133136;27;20494;-72
2023/04/17 00:52:40;;;;;;;20.90;12.40;;;;;;;;;;5132878;27;20034;-75
2023/04/17 00:55:06;;;;;;;20.38;12.10;;;;;;;;;;5132731;27;20023;-75
2023/04/17 00:57:33;;;;;;;18.98;12.82;;;;;;;;;;5127621;27;20047;-75
2023/04/17 00:59:58;;;;;;;21.58;12.52;;;;;;;;;;5129522;27;20027;-75
2023/04/17 01:02:25;;;;;;;23.17;14.10;;;;;;;;;;5131736;27;20456;-67
2023/04/17 01:04:50;;;;;;;29.60;13.80;;;;;;;;;;5131543;27;20050;-75
2023/04/17 01:07:16;;;;;;;25.20;14.27;;;;;;;;;;5131739;27;20486;-73
2023/04/17 01:09:41;;;;;;;24.40;14.30;;;;;;;;;;5131482;27;20027;-73
2023/04/17 01:12:24;;;;;;;25.70;14.77;;;;;;;;;;5131660;27;20024;-74
2023/04/17 01:14:53;;;;;;;32.45;16.35;;;;;;;;;;5129867;28;20394;-75
2023/04/17 01:17:20;;;;;;;31.63;18.05;;;;;;;;;;5132547;27;20038;-75
2023/04/17 01:19:46;;;;;;;37.42;18.25;;;;;;;;;;5131231;27;20023;-75
2023/04/17 01:22:12;;;;;;;37.30;18.92;;;;;;;;;;5133698;27;20027;-67
2023/04/17 01:24:37;;;;;;;37.13;18.63;;;;;;;;;;5135471;27;20442;-72
2023/04/17 01:27:04;;;;;;;39.67;19.58;;;;;;;;;;5135453;27;20078;-64
2023/04/17 01:29:29;;;;;;;39.47;18.80;;;;;;;;;;5135173;27;20027;-71
2023/04/17 01:31:55;;;;;;;37.35;17.30;;;;;;;;;;5135156;27;20046;-72
2023/04/17 01:34:20;;;;;;;33.70;17.48;;;;;;;;;;5135190;27;20027;-75
2023/04/17 01:36:46;;;;;;;29.98;16.92;;;;;;;;;;5135419;27;20022;-74
2023/04/17 01:39:11;;;;;;;30.02;17.10;;;;;;;;;;5135125;27;20045;-75
2023/04/17 01:41:37;;;;;;;30.10;16.63;;;;;;;;;;5135595;27;20537;-74
2023/04/17 01:44:02;;;;;;;28.48;16.77;;;;;;;;;;5136268;27;20056;-65
2023/04/17 01:46:28;;;;;;;31.65;17.58;;;;;;;;;;5134852;27;20052;-74
2023/04/17 01:48:54;;;;;;;27.92;15.40;;;;;;;;;;5135811;27;20031;-73
2023/04/17 01:51:19;;;;;;;25.92;16.60;;;;;;;;;;5135992;27;20030;-75
2023/04/17 01:53:44;;;;;;;28.05;15.85;;;;;;;;;;5135999;27;20355;-73
2023/04/17 01:56:12;;;;;;;31.65;16.95;;;;;;;;;;5136173;27;20027;-73
2023/04/17 01:58:38;;;;;;;30.25;17.25;;;;;;;;;;5135535;27;20465;-75
2023/04/17 02:01:04;;;;;;;29.52;16.85;;;;;;;;;;5135296;27;20028;-75
2023/04/17 02:03:30;;;;;;;31.92;17.27;;;;;;;;;;5135706;27;20030;-68
2023/04/17 02:05:56;;;;;;;30.02;17.17;;;;;;;;;;5135915;27;20400;-71
2023/04/17 02:08:21;;;;;;;31.42;16.30;;;;;;;;;;5135689;27;20035;-74
2023/04/17 02:10:47;;;;;;;27.33;16.13;;;;;;;;;;5135626;27;20049;-64
2023/04/17 02:13:13;;;;;;;28.38;17.00;;;;;;;;;;5134286;27;20450;-73
2023/04/17 02:15:38;;;;;;;29.90;17.63;;;;;;;;;;5135614;27;20027;-73
2023/04/17 02:18:08;;;;;;;37.10;18.85;;;;;;;;;;5135118;27;20027;-69
2023/04/17 02:20:34;;;;;;;35.63;18.48;;;;;;;;;;5135378;27;20019;-71
2023/04/17 02:23:00;;;;;;;35.92;18.27;;;;;;;;;;5135454;27;20019;-73
2023/04/17 02:25:26;;;;;;;33.05;19.33;;;;;;;;;;5135442;27;20072;-72
2023/04/17 02:27:55;;;;;;;37.67;19.90;;;;;;;;;;5135401;27;20046;-73
2023/04/17 02:30:25;;;;;;;36.78;18.65;;;;;;;;;;5135337;27;20028;-74
2023/04/17 02:32:51;;;;;;;35.33;19.90;;;;;;;;;;5119637;27;20047;-75
2023/04/17 02:35:22;;;;;;;38.67;20.25;;;;;;;;;;5117394;27;20022;-73
2023/04/17 02:37:47;;;;;;;35.05;19.92;;;;;;;;;;5135477;27;20019;-72
2023/04/17 02:40:13;;;;;;;39.85;19.77;;;;;;;;;;5135339;27;20368;-73
2023/04/17 02:42:39;;;;;;;46.33;20.85;;;;;;;;;;5135139;27;20071;-74
2023/04/17 02:45:05;;;;;;;40.38;21.20;;;;;;;;;;5135064;27;20106;-75
2023/04/17 02:47:30;;;;;;;41.00;21.20;;;;;;;;;;5134870;27;20026;-75
2023/04/17 02:49:58;;;;;;;39.42;21.88;;;;;;;;;;5134919;27;20385;-72
2023/04/17 02:52:24;;;;;;;41.35;20.85;;;;;;;;;;5134886;27;20023;-66
2023/04/17 02:54:50;;;;;;;41.47;22.35;;;;;;;;;;5148902;27;20529;-72
2023/04/17 02:57:15;;;;;;;41.45;21.58;;;;;;;;;;5155538;27;20068;-64
2023/04/17 02:59:41;;;;;;;48.17;24.02;;;;;;;;;;5155209;27;20083;-75
2023/04/17 03:02:06;;;;;;;55.65;28.15;;;;;;;;;;5155422;27;20478;-72
2023/04/17 03:04:33;;;;;;;59.17;26.27;;;;;;;;;;5155461;27;20054;-74
2023/04/17 03:06:59;;;;;;;63.67;27.60;;;;;;;;;;5155430;27;20422;-74
2023/04/17 03:09:24;;;;;;;55.15;26.60;;;;;;;;;;5154955;27;20038;-68
2023/04/17 03:11:50;;;;;;;55.47;26.05;;;;;;;;;;5155297;27;20480;-74
2023/04/17 03:14:16;;;;;;;60.95;27.63;;;;;;;;;;5155416;27;20018;-75
2023/04/17 03:16:41;;;;;;;74.00;29.98;;;;;;;;;;5153844;27;20492;-74
2023/04/17 03:19:07;;;;;;;69.35;28.77;;;;;;;;;;5155022;27;20095;-74
2023/04/17 03:21:32;;;;;;;74.55;32.15;;;;;;;;;;5155254;27;20030;-64
2023/04/17 03:23:58;;;;;;;65.38;28.50;;;;;;;;;;5155210;27;20019;-74
2023/04/17 03:26:23;;;;;;;63.67;28.95;;;;;;;;;;5155249;27;20105;-74
2023/04/17 03:28:49;;;;;;;62.00;29.38;;;;;;;;;;5155294;27;20018;-74
2023/04/17 03:31:14;;;;;;;55.10;26.15;;;;;;;;;;5153799;27;20038;-70
2023/04/17 03:33:40;;;;;;;66.95;28.45;;;;;;;;;;5134207;27;20052;-63
2023/04/17 03:36:06;;;;;;;58.10;28.17;;;;;;;;;;5134352;27;20488;-75
2023/04/17 03:38:32;;;;;;;53.45;25.95;;;;;;;;;;5134089;27;20034;-72
2023/04/17 03:40:57;;;;;;;64.95;29.08;;;;;;;;;;5134208;27;20027;-70
2023/04/17 03:43:23;;;;;;;48.03;26.85;;;;;;;;;;5134126;27;20023;-74
2023/04/17 03:45:48;;;;;;;44.28;24.08;;;;;;;;;;5133494;27;20420;-69
2023/04/17 03:48:14;;;;;;;50.10;25.33;;;;;;;;;;5134060;27;20023;-75
2023/04/17 03:50:39;;;;;;;46.15;24.30;;;;;;;;;;5133886;27;20027;-67
2023/04/17 03:53:05;;;;;;;47.33;23.20;;;;;;;;;;5133987;27;20464;-64
2023/04/17 03:55:30;;;;;;;47.67;24.27;;;;;;;;;;5134115;27;20024;-67
2023/04/17 03:57:56;;;;;;;47.80;25.33;;;;;;;;;;5133917;27;20419;-74
2023/04/17 04:00:21;;;;;;;42.45;23.33;;;;;;;;;;5133247;27;20111;-75
2023/04/17 04:02:47;;;;;;;40.58;21.85;;;;;;;;;;5133632;27;20457;-74
2023/04/17 04:05:12;;;;;;;40.95;22.88;;;;;;;;;;5133626;27;20036;-70
2023/04/17 04:07:38;;;;;;;45.33;22.65;;;;;;;;;;5133726;27;20050;-73
2023/04/17 04:10:04;;;;;;;40.88;24.00;;;;;;;;;;5133416;27;20027;-74
2023/04/17 04:12:29;;;;;;;37.83;22.23;;;;;;;;;;5133442;27;20100;-68
2023/04/17 04:14:55;;;;;;;41.50;22.45;;;;;;;;;;5133216;27;20378;-65
2023/04/17 04:17:20;;;;;;;43.53;22.75;;;;;;;;;;5133579;27;20027;-74
2023/04/17 04:19:46;;;;;;;33.58;21.58;;;;;;;;;;5133599;27;20367;-73
2023/04/17 04:22:13;;;;;;;41.47;23.40;;;;;;;;;;5133552;27;20023;-71
2023/04/17 04:24:39;;;;;;;37.30;21.77;;;;;;;;;;5133377;27;20030;-68
2023/04/17 04:27:08;;;;;;;40.15;22.98;;;;;;;;;;5133431;27;20023;-72
2023/04/17 04:29:34;;;;;;;38.05;22.00;;;;;;;;;;5133082;27;20023;-69
2023/04/17 04:32:00;;;;;;;42.83;21.33;;;;;;;;;;5132834;27;20041;-70
2023/04/17 04:34:28;;;;;;;38.42;21.67;;;;;;;;;;5133444;27;20023;-65
2023/04/17 04:36:54;;;;;;;42.17;22.90;;;;;;;;;;5133378;27;20423;-74
2023/04/17 04:39:19;;;;;;;43.40;22.98;;;;;;;;;;5133329;27;20031;-74
2023/04/17 04:41:49;;;;;;;37.88;20.90;;;;;;;;;;5133315;28;20027;-74
2023/04/17 04:44:18;;;;;;;38.28;21.67;;;;;;;;;;5131541;28;20457;-68
2023/04/17 04:46:44;;;;;;;36.50;20.58;;;;;;;;;;5133228;27;20381;-72
2023/04/17 04:49:10;;;;;;;37.40;21.02;;;;;;;;;;5133142;27;20027;-73
2023/04/17 04:51:35;;;;;;;39.00;21.13;;;;;;;;;;5133364;27;20046;-65
2023/04/17 04:54:01;;;;;;;34.58;19.80;;;;;;;;;;5133024;27;20138;-74
2023/04/17 04:56:27;;;;;;;34.75;19.13;;;;;;;;;;5133911;27;20027;-73
2023/04/17 04:58:54;;;;;;;26.90;17.42;;;;;;;;;;5137008;27;20508;-67
2023/04/17 05:01:19;;;;;;;29.65;17.75;;;;;;;;;;5137210;27;20469;-66
2023/04/17 05:03:45;;;;;;;31.52;17.55;;;;;;;;;;5137158;27;20039;-71
2023/04/17 05:06:12;;;;;;;30.23;17.60;;;;;;;;;;5137130;27;20102;-67
2023/04/17 05:08:41;;;;;;;29.33;17.67;;;;;;;;;;5137215;27;20035;-64
2023/04/17 05:11:07;;;;;;;30.45;17.38;;;;;;;;;;5136904;27;20389;-74
2023/04/17 05:13:32;;;;;;;31.20;18.70;;;;;;;;;;5137121;27;20028;-69
2023/04/17 05:15:58;;;;;;;29.63;17.83;;;;;;;;;;5136868;27;20030;-73
2023/04/17 05:18:23;;;;;;;36.00;20.60;;;;;;;;;;5137090;27;20393;-73
2023/04/17 05:20:50;;;;;;;32.47;19.20;;;;;;;;;;5136849;27;20020;-76
2023/04/17 05:23:15;;;;;;;35.15;20.00;;;;;;;;;;5136868;27;20030;-68
2023/04/17 05:25:41;;;;;;;41.00;19.75;;;;;;;;;;5136645;27;20035;-75
2023/04/17 05:28:06;;;;;;;40.00;19.48;;;;;;;;;;5136198;27;20396;-65
2023/04/17 05:30:32;;;;;;;32.00;19.40;;;;;;;;;;5136610;27;20031;-75
2023/04/17 05:32:59;;;;;;;33.20;19.48;;;;;;;;;;5136364;27;20052;-71
2023/04/17 05:35:26;;;;;;;37.30;18.35;;;;;;;;;;5136581;27;20034;-75
2023/04/17 05:37:52;;;;;;;32.05;20.65;;;;;;;;;;5136396;27;20468;-65
2023/04/17 05:40:17;;;;;;;35.53;20.65;;;;;;;;;;5136096;27;20035;-73
2023/04/17 05:42:43;;;;;;;38.00;20.55;;;;;;;;;;5136371;27;20020;-65
2023/04/17 05:45:12;;;;;;;36.00;19.83;;;;;;;;;;5136579;27;20015;-68
2023/04/17 05:47:37;;;;;;;33.85;19.02;;;;;;;;;;5136216;27;20362;-73
2023/04/17 05:50:03;;;;;;;36.58;20.30;;;;;;;;;;5136180;27;20080;-73
2023/04/17 05:52:28;;;;;;;38.97;20.65;;;;;;;;;;5135969;27;20054;-69
2023/04/17 05:54:54;;;;;;;35.35;18.48;;;;;;;;;;5136249;27;20367;-69
2023/04/17 05:57:19;;;;;;;33.50;19.48;;;;;;;;;;5136342;27;20541;-76
2023/04/17 05:59:45;;;;;;;34.85;19.98;;;;;;;;;;5136267;27;20035;-75
2023/04/17 06:02:11;;;;;;;35.33;19.08;;;;;;;;;;5136010;27;20480;-68
2023/04/17 06:04:36;;;;;;;39.40;19.73;;;;;;;;;;5135797;27;20518;-65
2023/04/17 06:07:04;;;;;;;36.85;19.20;;;;;;;;;;5135931;27;20457;-71
2023/04/17 06:09:30;;;;;;;30.77;18.98;;;;;;;;;;5135842;27;20389;-73
2023/04/17 06:11:56;;;;;;;36.15;18.70;;;;;;;;;;5136001;27;20106;-71
2023/04/17 06:14:21;;;;;;;32.83;17.85;;;;;;;;;;5135964;27;20533;-74
2023/04/17 06:16:47;;;;;;;29.08;17.90;;;;;;;;;;5135849;27;20098;-65
2023/04/17 06:19:12;;;;;;;34.03;17.48;;;;;;;;;;5135820;27;20068;-73
2023/04/17 06:21:38;;;;;;;29.70;17.35;;;;;;;;;;5135787;27;20370;-66
2023/04/17 06:24:03;;;;;;;34.70;18.95;;;;;;;;;;5135591;27;20027;-74
2023/04/17 06:26:29;;;;;;;35.55;19.10;;;;;;;;;;5135578;27;20031;-74
2023/04/17 06:28:54;;;;;;;30.55;18.92;;;;;;;;;;5135613;27;20035;-67
2023/04/17 06:31:20;;;;;;;37.45;18.63;;;;;;;;;;5135156;27;20169;-65
2023/04/17 06:33:48;;;;;;;34.88;19.92;;;;;;;;;;5135639;27;20027;-64
2023/04/17 06:36:14;;;;;;;35.33;20.02;;;;;;;;;;5135431;27;20096;-65
2023/04/17 06:38:39;;;;;;;34.03;20.38;;;;;;;;;;5135064;27;20044;-74
2023/04/17 06:41:05;;;;;;;30.08;17.85;;;;;;;;;;5134175;27;20098;-69
2023/04/17 06:43:30;;;;;;;36.67;20.90;;;;;;;;;;5135025;27;20376;-73
2023/04/17 06:45:56;;;;;;;35.75;20.90;;;;;;;;;;5135270;27;20430;-75
2023/04/17 06:48:21;;;;;;;34.38;18.70;;;;;;;;;;5135206;27;20023;-70
2023/04/17 06:50:47;;;;;;;34.80;20.08;;;;;;;;;;5134953;27;20027;-74
2023/04/17 06:53:12;;;;;;;35.15;20.83;;;;;;;;;;5134761;27;20023;-74
2023/04/17 06:55:38;;;;;;;33.35;19.98;;;;;;;;;;5135131;27;20019;-74
2023/04/17 06:58:03;;;;;;;36.40;20.33;;;;;;;;;;5135128;27;20030;-65
2023/04/17 07:00:29;;;;;;;40.65;20.80;;;;;;;;;;5134762;27;20065;-66
2023/04/17 07:02:55;;;;;;;37.92;20.95;;;;;;;;;;5134847;27;20027;-66
2023/04/17 07:05:20;;;;;;;33.88;19.98;;;;;;;;;;5134443;27;20034;-63
2023/04/17 07:07:46;;;;;;;37.10;21.42;;;;;;;;;;5134708;27;20046;-72
2023/04/17 07:10:14;;;;;;;32.67;20.92;;;;;;;;;;5126538;27;20028;-72
2023/04/17 07:12:45;;;;;;;35.50;20.13;;;;;;;;;;5134637;27;20122;-67
2023/04/17 07:15:11;;;;;;;38.88;20.90;;;;;;;;;;5137643;27;20464;-71
2023/04/17 07:17:36;;;;;;;41.25;21.05;;;;;;;;;;5141840;27;20128;-72
2023/04/17 07:20:04;;;;;;;36.05;20.80;;;;;;;;;;5142743;27;20394;-70
2023/04/17 07:22:29;;;;;;;35.40;18.55;;;;;;;;;;5147714;27;20034;-71
2023/04/17 07:24:55;;;;;;;31.63;19.48;;;;;;;;;;5144756;27;20030;-70
2023/04/17 07:27:20;;;;;;;37.15;18.33;;;;;;;;;;5139918;27;20023;-72
2023/04/17 07:29:51;;;;;;;35.53;19.75;;;;;;;;;;5143515;27;20049;-71
2023/04/17 07:32:17;;;;;;;29.08;19.27;;;;;;;;;;5142520;27;20494;-70
2023/04/17 07:34:42;;;;;;;32.03;19.17;;;;;;;;;;5142785;27;20015;-71
2023/04/17 07:37:08;;;;;;;31.70;18.30;;;;;;;;;;5139048;27;20101;-67
2023/04/17 07:39:33;;;;;;;31.45;18.70;;;;;;;;;;5147113;27;20031;-67
2023/04/17 07:42:01;;;;;;;35.05;18.35;;;;;;;;;;5139751;27;20010;-65
2023/04/17 07:44:27;;;;;;;35.45;19.40;;;;;;;;;;5129467;27;20105;-67
2023/04/17 07:46:52;;;;;;;28.10;17.95;;;;;;;;;;5137716;27;20118;-64
2023/04/17 07:49:18;;;;;;;31.52;19.13;;;;;;;;;;5140231;27;20035;-70
2023/04/17 07:51:43;;;;;;;31.85;19.08;;;;;;;;;;5140294;27;20439;-70
2023/04/17 07:54:08;;;;;;;30.23;17.48;;;;;;;;;;5144173;27;20468;-71
2023/04/17 07:56:35;;;;;;;28.95;17.83;;;;;;;;;;5135969;27;20043;-72
2023/04/17 07:59:01;;;;;;;31.00;18.92;;;;;;;;;;5144094;27;20021;-74
2023/04/17 08:01:26;;;;;;;29.10;16.08;;;;;;;;;;5143758;27;20036;-77
2023/04/17 08:03:53;;;;;;;28.70;15.27;;;;;;;;;;5140831;27;20031;-73
2023/04/17 08:06:19;;;;;;;28.77;16.50;;;;;;;;;;5143985;27;20040;-71
2023/04/17 08:08:46;;;;;;;29.65;16.48;;;;;;;;;;5142083;27;20026;-73
2023/04/17 08:11:13;;;;;;;25.55;15.27;;;;;;;;;;5136469;27;20398;-74
2023/04/17 08:13:39;;;;;;;24.95;15.43;;;;;;;;;;5132165;27;20014;-73
2023/04/17 08:16:05;;;;;;;28.77;15.35;;;;;;;;;;5135043;27;20023;-74
2023/04/17 08:18:31;;;;;;;29.20;14.68;;;;;;;;;;5136795;27;20109;-70
2023/04/17 08:20:56;;;;;;;24.60;14.70;;;;;;;;;;5135594;27;20019;-70
2023/04/17 08:23:22;;;;;;;23.88;15.45;;;;;;;;;;5138675;27;20030;-69
2023/04/17 08:25:47;;;;;;;23.15;13.43;;;;;;;;;;5146910;27;20046;-66
2023/04/17 08:28:13;;;;;;;26.85;14.23;;;;;;;;;;5144955;27;20495;-73
2023/04/17 08:30:38;;;;;;;26.08;14.38;;;;;;;;;;5139012;27;20088;-63
2023/04/17 08:33:03;;;;;;;26.15;14.52;;;;;;;;;;5136588;27;20041;-73
2023/04/17 08:35:29;;;;;;;27.35;14.00;;;;;;;;;;5134661;27;20039;-71
2023/04/17 08:37:57;;;;;;;25.65;14.43;;;;;;;;;;5143817;27;20031;-72
2023/04/17 08:40:25;;;;;;;23.02;14.18;;;;;;;;;;5142418;27;20026;-65
2023/04/17 08:42:51;;;;;;;24.98;14.27;;;;;;;;;;5143250;27;20019;-73
2023/04/17 08:45:18;;;;;;;23.67;14.70;;;;;;;;;;5143712;27;20059;-69
2023/04/17 08:47:44;;;;;;;22.33;13.35;;;;;;;;;;5147397;27;20110;-72
2023/04/17 08:50:14;;;;;;;19.67;12.90;;;;;;;;;;5147338;27;20109;-74
2023/04/17 08:52:44;;;;;;;23.00;13.13;;;;;;;;;;5144940;27;20031;-74
2023/04/17 08:55:12;;;;;;;15.95;10.82;;;;;;;;;;5142406;27;20080;-75
2023/04/17 08:57:56;;;;;;;19.48;12.13;;;;;;;;;;5151021;27;20054;-72
2023/04/17 09:00:30;;;;;;;14.05;10.13;;;;;;;;;;5138444;27;20071;-75
2023/04/17 09:02:57;;;;;;;20.10;10.25;;;;;;;;;;5143543;27;20114;-72
2023/04/17 09:05:24;;;;;;;16.65;10.82;;;;;;;;;;5134442;27;20027;-73
2023/04/17 09:08:08;;;;;;;17.63;10.45;;;;;;;;;;5142214;27;20022;-75
2023/04/17 09:10:36;;;;;;;13.73;10.45;;;;;;;;;;5137575;27;20039;-73
2023/04/17 09:13:01;;;;;;;13.82;9.55;;;;;;;;;;5138989;27;20473;-74
2023/04/17 09:15:27;;;;;;;14.55;11.02;;;;;;;;;;5139216;27;20102;-66
2023/04/17 09:17:52;;;;;;;15.60;10.60;;;;;;;;;;5146177;27;20091;-71
2023/04/17 09:20:17;;;;;;;19.08;10.68;;;;;;;;;;5141990;27;20035;-74
2023/04/17 09:22:43;;;;;;;16.88;9.40;;;;;;;;;;5142269;27;20057;-73
2023/04/17 09:25:19;;;;;;;15.35;10.68;;;;;;;;;;5136600;27;20027;-74
2023/04/17 09:27:45;;;;;;;16.38;9.63;;;;;;;;;;5136294;27;20015;-73
2023/04/17 09:30:12;;;;;;;16.48;9.07;;;;;;;;;;5138140;27;20023;-75
2023/04/17 09:32:39;;;;;;;15.98;9.48;;;;;;;;;;5146248;27;20095;-70
2023/04/17 09:35:05;;;;;;;14.25;9.25;;;;;;;;;;5131262;27;20034;-70
2023/04/17 09:37:50;;;;;;;17.67;10.40;;;;;;;;;;5142171;27;20023;-74
2023/04/17 09:40:20;;;;;;;12.88;8.63;;;;;;;;;;5134597;27;20033;-67
2023/04/17 09:43:03;;;;;;;14.90;9.07;;;;;;;;;;5146622;27;20034;-75
2023/04/17 09:45:38;;;;;;;12.13;8.35;;;;;;;;;;5143078;27;20031;-69
2023/04/17 09:48:09;;;;;;;13.40;8.35;;;;;;;;;;5144523;27;20027;-74
2023/04/17 09:50:36;;;;;;;10.57;7.82;;;;;;;;;;5150325;27;20030;-74
2023/04/17 09:53:03;;;;;;;11.93;8.25;;;;;;;;;;5149112;27;20027;-74
2023/04/17 09:55:30;;;;;;;13.77;8.20;;;;;;;;;;5142139;27;20062;-70
2023/04/17 09:57:57;;;;;;;13.30;8.52;;;;;;;;;;5142100;27;20563;-74
2023/04/17 10:00:26;;;;;;;11.98;7.43;;;;;;;;;;5145160;27;20087;-74
2023/04/17 10:02:53;;;;;;;10.30;6.85;;;;;;;;;;5141290;27;20019;-74
2023/04/17 10:05:23;;;;;;;11.38;7.57;;;;;;;;;;5138407;27;20031;-72
2023/04/17 10:07:48;;;;;;;10.65;7.28;;;;;;;;;;5141083;27;20038;-75
2023/04/17 10:10:22;;;;;;;10.88;7.95;;;;;;;;;;5138737;27;20397;-68
2023/04/17 10:12:49;;;;;;;11.63;8.13;;;;;;;;;;5149122;27;20246;-71
2023/04/17 10:15:15;;;;;;;11.43;8.32;;;;;;;;;;5143418;27;20019;-70
2023/04/17 10:17:41;;;;;;;10.90;8.13;;;;;;;;;;5143278;27;20474;-74
2023/04/17 10:20:16;;;;;;;11.88;8.45;;;;;;;;;;5147702;27;20034;-74
2023/04/17 10:22:44;;;;;;;10.73;7.35;;;;;;;;;;5143771;27;20083;-73
2023/04/17 10:25:12;;;;;;;15.10;7.18;;;;;;;;;;5143488;27;20174;-73
2023/04/17 10:27:39;;;;;;;9.23;6.57;;;;;;;;;;5137126;27;20030;-70
2023/04/17 10:30:06;;;;;;;8.82;5.80;;;;;;;;;;5145930;27;20117;-73
2023/04/17 10:32:33;;;;;;;10.43;6.10;;;;;;;;;;5134594;27;20047;-74
2023/04/17 10:35:00;;;;;;;11.07;6.88;;;;;;;;;;5133144;27;20149;-66
2023/04/17 10:37:49;;;;;;;7.82;5.88;;;;;;;;;;5137672;27;20023;-73
2023/04/17 10:40:21;;;;;;;7.65;5.80;;;;;;;;;;5128919;27;20039;-74
2023/04/17 10:43:16;;;;;;;9.48;6.35;;;;;;;;;;5141602;27;20121;-74
2023/04/17 10:46:08;;;;;;;8.27;5.53;;;;;;;;;;5138710;27;20027;-74
2023/04/17 10:48:51;;;;;;;7.75;6.13;;;;;;;;;;5142113;27;20038;-73
2023/04/17 10:51:28;;;;;;;8.80;5.95;;;;;;;;;;5143329;27;20683;-71
2023/04/17 10:54:00;;;;;;;9.30;6.70;;;;;;;;;;5140348;27;20033;-75
2023/04/17 10:56:26;;;;;;;8.52;6.07;;;;;;;;;;5140572;27;20512;-73
2023/04/17 10:58:57;;;;;;;11.40;7.05;;;;;;;;;;5145929;27;20080;-74
2023/04/17 11:01:35;;;;;;;9.23;6.88;;;;;;;;;;5132233;27;20027;-74
2023/04/17 11:04:01;;;;;;;11.27;8.13;;;;;;;;;;5136660;27;20015;-73
2023/04/17 11:06:30;;;;;;;14.50;8.88;;;;;;;;;;5149158;27;20081;-63
2023/04/17 11:08:56;;;;;;;22.58;14.98;;;;;;;;;;5132523;27;20478;-74
2023/04/17 11:11:21;;;;;;;15.57;9.55;;;;;;;;;;5140659;27;20027;-73
2023/04/17 11:13:47;;;;;;;13.98;9.48;;;;;;;;;;5140961;27;20106;-63
2023/04/17 11:16:16;;;;;;;12.73;8.90;;;;;;;;;;5142784;27;20485;-74
2023/04/17 11:18:43;;;;;;;17.17;9.68;;;;;;;;;;5152783;27;20066;-67
2023/04/17 11:21:12;;;;;;;11.88;7.85;;;;;;;;;;5151242;27;20436;-74
2023/04/17 11:23:38;;;;;;;13.63;8.15;;;;;;;;;;5152671;27;20023;-74
2023/04/17 11:26:08;;;;;;;12.52;8.02;;;;;;;;;;5150991;27;20074;-74
2023/04/17 11:28:38;;;;;;;9.85;7.90;;;;;;;;;;5151819;27;20023;-75
2023/04/17 11:31:03;;;;;;;10.32;7.47;;;;;;;;;;5134102;27;20055;-72
2023/04/17 11:33:35;;;;;;;13.27;9.88;;;;;;;;;;5133830;27;20042;-70
2023/04/17 11:36:01;;;;;;;14.48;9.27;;;;;;;;;;5134817;27;20027;-73
2023/04/17 11:38:27;;;;;;;16.52;12.30;;;;;;;;;;5131928;27;20118;-63
2023/04/17 11:40:59;;;;;;;13.55;9.93;;;;;;;;;;5152214;27;20083;-74
2023/04/17 11:43:26;;;;;;;16.73;10.70;;;;;;;;;;5127887;27;20441;-74
2023/04/17 11:45:54;;;;;;;13.88;9.73;;;;;;;;;;5131594;27;20034;-75
2023/04/17 11:48:21;;;;;;;13.15;9.35;;;;;;;;;;5133975;27;20033;-72
2023/04/17 11:50:47;;;;;;;14.73;8.80;;;;;;;;;;5152329;27;20076;-74
2023/04/17 11:53:15;;;;;;;12.23;9.52;;;;;;;;;;5132623;27;20051;-74
2023/04/17 11:55:41;;;;;;;11.25;8.48;;;;;;;;;;5131168;27;20031;-74
2023/04/17 11:58:08;;;;;;;11.05;8.27;;;;;;;;;;5140381;27;20023;-74
2023/04/17 12:00:36;;;;;;;14.00;8.52;;;;;;;;;;5151261;27;20023;-73
2023/04/17 12:03:23;;;;;;;10.35;7.85;;;;;;;;;;5148678;27;20447;-72
2023/04/17 12:06:00;;;;;;;9.45;7.43;;;;;;;;;;5131814;27;20037;-74
2023/04/17 12:08:26;;;;;;;11.63;7.45;;;;;;;;;;5131499;27;20462;-73
2023/04/17 12:10:51;;;;;;;10.52;7.03;;;;;;;;;;5131090;27;20061;-72
2023/04/17 12:13:17;;;;;;;9.50;7.60;;;;;;;;;;5130566;27;20439;-75
2023/04/17 12:15:42;;;;;;;10.10;7.53;;;;;;;;;;5131215;27;20424;-74
2023/04/17 12:18:08;;;;;;;10.05;8.02;;;;;;;;;;5135454;27;20071;-72
2023/04/17 12:20:37;;;;;;;12.90;7.95;;;;;;;;;;5130545;27;20030;-74
2023/04/17 12:23:05;;;;;;;9.85;8.10;;;;;;;;;;5130656;27;20056;-74
2023/04/17 12:25:32;;;;;;;9.18;7.50;;;;;;;;;;5130905;27;20067;-74
2023/04/17 12:27:58;;;;;;;10.98;7.88;;;;;;;;;;5133642;27;20030;-67
2023/04/17 12:30:27;;;;;;;10.95;8.02;;;;;;;;;;5138809;27;20018;-74
2023/04/17 12:32:53;;;;;;;12.63;8.88;;;;;;;;;;5137003;27;20058;-72
2023/04/17 12:35:20;;;;;;;12.23;8.20;;;;;;;;;;5130268;27;20102;-75
2023/04/17 12:37:47;;;;;;;12.88;9.32;;;;;;;;;;5130358;27;20022;-63
2023/04/17 12:40:17;;;;;;;15.02;12.15;;;;;;;;;;5145518;27;20182;-72
2023/04/17 12:42:44;;;;;;;11.38;8.15;;;;;;;;;;5147090;27;20100;-74
2023/04/17 12:45:10;;;;;;;12.27;7.82;;;;;;;;;;5150934;27;20033;-75
2023/04/17 12:47:35;;;;;;;12.50;7.78;;;;;;;;;;5151188;27;20392;-72
2023/04/17 12:50:01;;;;;;;11.55;6.82;;;;;;;;;;5150839;27;20029;-73
2023/04/17 12:52:26;;;;;;;13.98;8.85;;;;;;;;;;5143452;27;20442;-74
2023/04/17 12:54:58;;;;;;;10.15;7.00;;;;;;;;;;5130591;27;20034;-74
2023/04/17 12:57:24;;;;;;;10.57;8.88;;;;;;;;;;5146751;27;20031;-74
2023/04/17 12:59:49;;;;;;;10.75;8.32;;;;;;;;;;5149729;27;20034;-75
2023/04/17 13:02:15;;;;;;;8.68;6.63;;;;;;;;;;5150955;27;20025;-69
2023/04/17 13:04:40;;;;;;;8.95;6.57;;;;;;;;;;5140766;27;20070;-74
2023/04/17 13:07:06;;;;;;;10.93;8.50;;;;;;;;;;5129421;27;20034;-73
2023/04/17 13:09:32;;;;;;;10.90;7.97;;;;;;;;;;5151049;27;20041;-69
2023/04/17 13:11:57;;;;;;;15.45;12.30;;;;;;;;;;5151075;27;20027;-70
2023/04/17 13:14:23;;;;;;;9.90;7.28;;;;;;;;;;5151202;27;20480;-71
2023/04/17 13:16:49;;;;;;;10.15;7.53;;;;;;;;;;5150907;27;20030;-74
2023/04/17 13:19:15;;;;;;;9.13;5.75;;;;;;;;;;5154561;27;20505;-72
2023/04/17 13:21:40;;;;;;;16.50;13.20;;;;;;;;;;5155210;27;20027;-75
2023/04/17 13:24:07;;;;;;;8.98;5.57;;;;;;;;;;5153584;27;20376;-74
2023/04/17 13:26:33;;;;;;;9.90;5.85;;;;;;;;;;5154562;27;20034;-65
2023/04/17 13:28:58;;;;;;;8.35;6.55;;;;;;;;;;5154744;27;20019;-70
2023/04/17 13:31:25;;;;;;;6.95;5.03;;;;;;;;;;5145052;27;20066;-73
2023/04/17 13:33:50;;;;;;;7.68;5.53;;;;;;;;;;5134002;27;20039;-69
2023/04/17 13:36:16;;;;;;;20.88;12.85;;;;;;;;;;5133579;27;20057;-74
2023/04/17 13:38:41;;;;;;;14.38;11.02;;;;;;;;;;5133954;27;20027;-70
2023/04/17 13:41:07;;;;;;;6.45;4.50;;;;;;;;;;5133386;27;20034;-63
2023/04/17 13:43:32;;;;;;;8.10;4.95;;;;;;;;;;5133907;27;20389;-67
2023/04/17 13:45:57;;;;;;;11.75;7.53;;;;;;;;;;5142376;27;20030;-63
2023/04/17 13:48:23;;;;;;;17.67;14.10;;;;;;;;;;5154612;27;20037;-74
2023/04/17 13:50:48;;;;;;;7.65;6.00;;;;;;;;;;5138919;27;20035;-74
2023/04/17 13:53:14;;;;;;;7.90;5.90;;;;;;;;;;5129780;27;20015;-70
2023/04/17 13:55:39;;;;;;;8.65;7.07;;;;;;;;;;5131394;27;20035;-71
2023/04/17 13:58:05;;;;;;;9.50;6.60;;;;;;;;;;5132952;27;20110;-74
2023/04/17 14:00:30;;;;;;;8.35;6.70;;;;;;;;;;5131594;27;20375;-75
2023/04/17 14:02:56;;;;;;;14.07;10.02;;;;;;;;;;5132454;27;20023;-72
2023/04/17 14:05:21;;;;;;;9.85;6.93;;;;;;;;;;5147293;27;20025;-71
2023/04/17 14:07:47;;;;;;;14.88;9.23;;;;;;;;;;5152203;27;20042;-64
2023/04/17 14:10:12;;;;;;;9.82;7.07;;;;;;;;;;5151904;27;20035;-65
2023/04/17 14:12:37;;;;;;;12.90;6.78;;;;;;;;;;5148895;27;20477;-63
2023/04/17 14:15:04;;;;;;;12.48;9.00;;;;;;;;;;5131987;27;20404;-73
2023/04/17 14:17:29;;;;;;;9.68;7.03;;;;;;;;;;5131369;27;20106;-72
2023/04/17 14:19:54;;;;;;;11.40;7.25;;;;;;;;;;5146651;27;20117;-74
2023/04/17 14:22:20;;;;;;;13.65;8.10;;;;;;;;;;5151817;27;20071;-72